Ios, Greece
Current Conditions -  °F | °C
As of 6:50 PM on Thursday 30 Oct 2014 (Local Time) from LGSR Reporting Station
Scattered Clouds Scattered Clouds  
Wind Chill: 64°   Ceiling: Unl
Heat Index: 64°   Visibility: 6mi
Dew Point: 54°   Wind: 12mph
Humidity: 68%   Direction: 340°NNW
Pressure: 30"   Gusts: NA
Location:  36.73°N, 25.28°E
Report Text: LGSR 301550Z 34010KT 9999 SCT020 18/12 Q1016
Loading
Personal Weather Stations






























Interactive Weather Map
Tropical Storm Tracking
New forecast layout! Learn more

10-Day Weather Forecast

Advertisements
Track Severe Weather on mobile